Time;durP1;ratioP1;P1;durP2;ratioP2;P2;SDS_P1;SDS_P2;PMS_P1;PMS_P2;Temp;Humidity;BMP_temperature;BMP_pressure;BME280_temperature;BME280_humidity;BME280_pressure;Samples;Min_cycle;Max_cycle;Signal;HPM_P1;HPM_P2
2023/02/13 00:01:45;;;;;;;44.60;26.17;;;8.00;99.90;;;;;;6306734;22;37723;-81
2023/02/13 00:04:31;;;;;;;40.13;24.80;;;8.00;99.90;;;;;;6292250;22;37892;-81
2023/02/13 00:06:57;;;;;;;42.30;24.67;;;8.00;99.90;;;;;;6307936;22;38370;-81
2023/02/13 00:09:24;;;;;;;39.13;24.67;;;8.00;99.90;;;;;;6300606;22;38551;-81
2023/02/13 00:11:51;;;;;;;43.67;27.00;;;8.00;99.90;;;;;;6286212;22;37657;-82
2023/02/13 00:14:18;;;;;;;43.00;26.00;;;8.00;99.90;;;;;;6231033;22;38181;-81
2023/02/13 00:16:46;;;;;;;40.80;24.93;;;8.00;99.90;;;;;;6278721;22;38488;-81
2023/02/13 00:19:23;;;;;;;42.20;24.13;;;8.00;99.90;;;;;;6274347;22;38614;-81
2023/02/13 00:21:50;;;;;;;40.10;24.30;;;8.00;99.90;;;;;;6275583;22;37492;-81
2023/02/13 00:24:19;;;;;;;43.60;25.17;;;8.00;99.90;;;;;;6267798;22;38870;-81
2023/02/13 00:26:53;;;;;;;41.00;25.47;;;8.00;99.90;;;;;;6275433;22;38586;-81
2023/02/13 00:29:21;;;;;;;41.73;25.90;;;7.90;99.90;;;;;;6275961;22;38074;-81
2023/02/13 00:31:54;;;;;;;43.73;27.00;;;7.90;99.90;;;;;;6251831;22;37623;-81
2023/02/13 00:34:22;;;;;;;40.47;25.13;;;7.90;99.90;;;;;;6256953;22;38811;-81
2023/02/13 00:36:51;;;;;;;43.87;25.30;;;7.90;99.90;;;;;;6277655;22;38347;-80
2023/02/13 00:39:18;;;;;;;42.43;26.60;;;7.90;99.90;;;;;;6268312;22;37318;-80
2023/02/13 00:41:45;;;;;;;44.10;26.37;;;7.90;99.90;;;;;;6264036;22;37718;-80
2023/02/13 00:44:12;;;;;;;43.10;26.00;;;7.90;99.90;;;;;;6272552;22;40369;-81
2023/02/13 00:46:48;;;;;;;41.10;24.73;;;7.90;99.90;;;;;;6276146;22;37698;-81
2023/02/13 00:49:15;;;;;;;39.90;24.90;;;7.90;99.90;;;;;;6259446;22;38798;-80
2023/02/13 00:51:41;;;;;;;42.00;25.33;;;7.90;99.90;;;;;;6255254;22;36412;-81
2023/02/13 00:54:11;;;;;;;41.40;24.87;;;7.90;99.90;;;;;;6284173;22;39870;-80
2023/02/13 00:56:37;;;;;;;39.33;24.33;;;7.90;99.90;;;;;;6253540;22;38615;-81
2023/02/13 00:59:04;;;;;;;39.27;24.80;;;7.90;99.90;;;;;;6299146;22;38652;-80
2023/02/13 01:01:33;;;;;;;46.07;26.17;;;7.90;99.90;;;;;;6255228;22;36995;-81
2023/02/13 01:04:01;;;;;;;39.13;24.43;;;7.90;99.90;;;;;;6252131;22;38959;-81
2023/02/13 01:06:28;;;;;;;41.90;24.73;;;7.90;99.90;;;;;;6225187;22;50453;-80
2023/02/13 01:08:57;;;;;;;39.77;25.00;;;7.90;99.90;;;;;;6293353;22;38905;-81
2023/02/13 01:11:27;;;;;;;41.37;24.53;;;7.90;99.90;;;;;;6288151;22;37612;-80
2023/02/13 01:13:56;;;;;;;39.77;25.30;;;7.90;99.90;;;;;;6334866;22;39072;-81
2023/02/13 01:16:22;;;;;;;37.60;24.60;;;8.00;99.90;;;;;;6264660;22;37435;-82
2023/02/13 01:18:57;;;;;;;40.57;25.10;;;7.90;99.90;;;;;;6289032;22;37357;-81
2023/02/13 01:21:25;;;;;;;45.60;26.50;;;7.90;99.90;;;;;;6330935;22;38561;-80
2023/02/13 01:23:51;;;;;;;43.60;25.77;;;7.90;99.90;;;;;;6300503;22;37785;-81
2023/02/13 01:26:21;;;;;;;41.07;25.57;;;7.90;99.90;;;;;;6303249;22;38629;-81
2023/02/13 01:28:47;;;;;;;42.60;25.13;;;7.90;99.90;;;;;;6300979;22;38659;-81
2023/02/13 01:31:21;;;;;;;40.97;25.70;;;7.90;99.90;;;;;;6305450;22;39239;-81
2023/02/13 01:33:48;;;;;;;42.50;25.70;;;7.90;99.90;;;;;;6331768;22;39161;-80
2023/02/13 01:36:31;;;;;;;39.37;24.70;;;7.90;99.90;;;;;;6305050;22;38945;-81
2023/02/13 01:38:59;;;;;;;39.10;25.23;;;7.90;99.90;;;;;;6301592;22;37337;-81
2023/02/13 01:41:27;;;;;;;43.27;24.67;;;7.90;99.90;;;;;;6302049;22;37676;-81
2023/02/13 01:43:59;;;;;;;43.50;25.47;;;7.90;99.90;;;;;;6308388;22;39289;-81
2023/02/13 01:46:29;;;;;;;41.47;25.03;;;7.90;99.90;;;;;;6306511;22;39999;-81
2023/02/13 01:49:17;;;;;;;41.90;25.70;;;7.90;99.90;;;;;;6282151;22;39379;-80
2023/02/13 01:51:56;;;;;;;42.83;26.30;;;7.90;99.90;;;;;;6298343;22;47517;-81
2023/02/13 01:54:29;;;;;;;40.20;24.60;;;7.90;99.90;;;;;;6304618;22;38367;-81
2023/02/13 01:57:13;;;;;;;42.47;26.77;;;7.90;99.90;;;;;;6306688;22;38429;-81
2023/02/13 01:59:50;;;;;;;40.00;24.07;;;7.90;99.90;;;;;;6301673;22;48191;-81
2023/02/13 02:02:17;;;;;;;43.10;25.87;;;7.90;99.90;;;;;;6224066;22;36762;-78
2023/02/13 02:04:45;;;;;;;41.67;25.17;;;7.90;99.90;;;;;;6239474;22;39913;-79
2023/02/13 02:07:26;;;;;;;43.40;25.57;;;7.90;99.90;;;;;;6219233;22;37297;-79
2023/02/13 02:09:58;;;;;;;40.50;25.20;;;7.90;99.90;;;;;;6222218;22;36882;-79
2023/02/13 02:12:51;;;;;;;37.97;24.63;;;7.90;99.90;;;;;;6222835;22;36353;-79
2023/02/13 02:15:17;;;;;;;;;;;7.80;99.90;;;;;;6247920;22;38898;-79
2023/02/13 02:17:43;;;;;;;42.47;25.53;;;7.80;99.90;;;;;;6221555;22;39258;-80
2023/02/13 02:20:42;;;;;;;38.87;23.97;;;7.80;99.90;;;;;;6218484;22;37202;-79
2023/02/13 02:23:23;;;;;;;44.97;25.13;;;7.80;99.90;;;;;;6220111;22;36708;-79
2023/02/13 02:26:09;;;;;;;43.30;25.23;;;7.80;99.90;;;;;;6221349;22;38092;-79
2023/02/13 02:28:48;;;;;;;38.87;25.30;;;7.90;99.90;;;;;;6219286;22;47384;-79
2023/02/13 02:31:52;;;;;;;40.40;25.47;;;7.90;99.90;;;;;;6243332;22;39116;-79
2023/02/13 02:34:55;;;;;;;45.33;24.80;;;7.80;99.90;;;;;;6218840;22;37622;-79
2023/02/13 02:37:37;;;;;;;42.65;24.17;;;7.80;99.90;;;;;;6217963;22;38001;-79
2023/02/13 02:40:21;;;;;;;37.70;24.45;;;7.80;99.90;;;;;;6218469;22;37299;-80
2023/02/13 02:43:26;;;;;;;44.07;25.27;;;7.80;99.90;;;;;;6219453;22;47378;-79
2023/02/13 02:45:55;;;;;;;43.10;25.43;;;7.80;99.90;;;;;;6246586;22;49242;-78
2023/02/13 02:52:00;;;;;;;44.45;25.90;;;7.80;99.90;;;;;;6246129;22;39629;-79
2023/02/13 02:55:05;;;;;;;41.03;25.47;;;7.80;99.90;;;;;;6202038;22;38398;-79
2023/02/13 03:06:25;;;;;;;39.30;24.63;;;7.80;99.90;;;;;;6247168;22;39347;-79
2023/02/13 03:14:32;;;;;;;41.70;23.97;;;7.80;99.90;;;;;;6253570;22;49653;-79
2023/02/13 03:23:18;;;;;;;41.43;25.50;;;7.80;99.90;;;;;;6253353;22;49271;-78
2023/02/13 03:26:05;;;;;;;42.30;25.57;;;7.80;99.90;;;;;;6253109;22;49207;-81
2023/02/13 03:31:52;;;;;;;44.30;25.50;;;7.70;99.90;;;;;;6254695;22;50948;-81
2023/02/13 03:34:23;;;;;;;41.67;25.40;;;7.70;99.90;;;;;;6225474;22;38775;-81
2023/02/13 03:39:53;;;;;;;43.97;25.27;;;7.70;99.90;;;;;;6247201;22;49666;-81
2023/02/13 03:42:29;;;;;;;43.80;25.00;;;7.70;99.90;;;;;;6246933;22;37756;-81
2023/02/13 03:48:08;;;;;;;40.90;24.30;;;7.70;99.90;;;;;;6210895;22;49409;-81
2023/02/13 03:50:39;;;;;;;39.77;24.40;;;7.70;99.90;;;;;;6219604;22;47161;-80
2023/02/13 03:53:09;;;;;;;43.67;26.47;;;7.70;99.90;;;;;;6223483;22;38344;-81
2023/02/13 04:01:31;;;;;;;42.10;25.73;;;7.70;99.90;;;;;;6248713;22;49688;-81
2023/02/13 04:04:21;;;;;;;46.93;26.73;;;7.70;99.90;;;;;;6247979;22;37515;-81
2023/02/13 04:06:52;;;;;;;41.13;24.93;;;7.70;99.90;;;;;;6223320;22;47287;-81
2023/02/13 04:09:19;;;;;;;41.33;25.63;;;7.70;99.90;;;;;;6215971;22;38705;-81
2023/02/13 04:11:48;;;;;;;44.17;26.33;;;7.60;99.90;;;;;;6217068;22;39803;-80
2023/02/13 04:14:22;;;;;;;42.40;25.93;;;7.60;99.90;;;;;;6223895;22;38077;-81
2023/02/13 04:17:04;;;;;;;45.20;26.33;;;7.60;99.90;;;;;;6223022;22;38565;-80
2023/02/13 04:19:32;;;;;;;41.72;25.20;;;7.70;99.90;;;;;;6220681;22;47501;-80
2023/02/13 04:22:00;;;;;;;45.13;26.50;;;7.70;99.90;;;;;;6244949;22;37991;-80
2023/02/13 04:24:27;;;;;;;46.20;27.13;;;7.60;99.90;;;;;;6245514;22;46886;-81
2023/02/13 04:26:57;;;;;;;44.13;26.47;;;7.60;99.90;;;;;;6220958;22;40037;-81
2023/02/13 04:29:25;;;;;;;45.17;24.90;;;7.60;99.90;;;;;;6218938;22;39640;-80
2023/02/13 04:31:51;;;;;;;48.27;26.20;;;7.60;99.90;;;;;;6220652;22;37057;-79
2023/02/13 04:34:17;;;;;;;45.03;26.80;;;7.60;99.90;;;;;;6245268;22;37699;-79
2023/02/13 04:36:43;;;;;;;42.50;24.57;;;7.60;99.90;;;;;;6245303;22;39586;-79
2023/02/13 04:39:10;;;;;;;42.93;26.40;;;7.70;99.90;;;;;;6245629;22;39430;-80
2023/02/13 04:41:36;;;;;;;45.03;26.83;;;7.60;99.90;;;;;;6249275;22;38983;-79
2023/02/13 04:44:03;;;;;;;41.70;25.50;;;7.60;99.90;;;;;;6221528;22;36452;-79
2023/02/13 04:46:29;;;;;;;43.63;25.53;;;7.60;99.90;;;;;;6223486;22;39471;-79
2023/02/13 04:48:55;;;;;;;43.70;25.97;;;7.60;99.90;;;;;;6222421;22;37336;-79
2023/02/13 04:51:21;;;;;;;43.77;25.43;;;7.60;99.90;;;;;;6220981;22;36975;-79
2023/02/13 04:53:47;;;;;;;44.97;26.47;;;7.60;99.90;;;;;;6223121;22;36582;-79
2023/02/13 04:56:13;;;;;;;42.23;25.60;;;7.60;99.90;;;;;;6250694;22;40275;-80
2023/02/13 04:58:40;;;;;;;43.47;26.00;;;7.60;99.90;;;;;;6249907;22;39039;-79
2023/02/13 05:01:15;;;;;;;46.17;26.90;;;7.60;99.90;;;;;;6247026;22;38723;-80
2023/02/13 05:03:41;;;;;;;44.43;27.50;;;7.60;99.90;;;;;;6219079;22;37652;-79
2023/02/13 05:06:08;;;;;;;44.03;26.57;;;7.60;99.90;;;;;;6241283;22;40596;-80
2023/02/13 05:08:35;;;;;;;47.20;26.73;;;7.70;99.90;;;;;;6219756;22;39455;-79
2023/02/13 05:11:01;;;;;;;42.50;25.20;;;7.60;99.90;;;;;;6244905;22;38739;-79
2023/02/13 05:13:27;;;;;;;45.10;25.50;;;7.60;99.90;;;;;;6219281;22;47184;-79
2023/02/13 05:15:53;;;;;;;44.90;26.00;;;7.60;99.90;;;;;;6244311;22;38956;-79
2023/02/13 05:18:19;;;;;;;42.47;26.70;;;7.60;99.90;;;;;;6245174;22;38466;-79
2023/02/13 05:23:21;;;;;;;43.40;25.13;;;7.60;99.90;;;;;;6246011;22;37503;-79
2023/02/13 05:23:32;;;;;;;42.13;24.67;;;7.70;99.90;;;;;;6250044;22;48857;-79
2023/02/13 05:25:58;;;;;;;44.47;26.10;;;7.60;99.90;;;;;;6219048;22;39463;-80
2023/02/13 05:31:10;;;;;;;46.33;25.83;;;7.60;99.90;;;;;;6246861;22;39478;-79
2023/02/13 05:33:36;;;;;;;44.50;26.20;;;7.60;99.90;;;;;;6247604;22;38155;-79
2023/02/13 05:36:03;;;;;;;44.33;24.67;;;7.60;99.90;;;;;;6218178;22;37909;-80
2023/02/13 05:38:29;;;;;;;45.03;25.27;;;7.60;99.90;;;;;;6218502;22;38378;-79
2023/02/13 05:40:59;;;;;;;41.70;25.33;;;7.60;99.90;;;;;;6244086;22;37791;-79
2023/02/13 05:43:26;;;;;;;42.80;25.70;;;7.60;99.90;;;;;;6218245;22;38080;-79
2023/02/13 05:46:01;;;;;;;48.63;26.13;;;7.60;99.90;;;;;;6221201;22;38017;-79
2023/02/13 05:48:27;;;;;;;44.33;25.47;;;7.60;99.90;;;;;;6219477;22;47125;-79
2023/02/13 05:50:55;;;;;;;44.47;26.10;;;7.60;99.90;;;;;;6246696;22;38741;-79
2023/02/13 05:53:21;;;;;;;55.20;28.27;;;7.50;99.90;;;;;;6250153;22;37637;-79
2023/02/13 05:55:49;;;;;;;49.13;28.43;;;7.50;99.90;;;;;;6223382;22;40062;-80
2023/02/13 05:58:15;;;;;;;48.40;28.00;;;7.50;99.90;;;;;;6228863;22;37433;-80
2023/02/13 06:00:41;;;;;;;54.83;28.87;;;7.50;99.90;;;;;;6248301;22;37573;-80
2023/02/13 06:03:07;;;;;;;50.47;27.13;;;7.40;99.90;;;;;;6220658;22;36409;-80
2023/02/13 06:05:34;;;;;;;47.13;27.97;;;7.30;99.90;;;;;;6221307;22;39129;-79
2023/02/13 06:08:00;;;;;;;45.67;27.53;;;7.30;99.90;;;;;;6220595;22;37022;-80
2023/02/13 06:10:26;;;;;;;47.37;26.27;;;7.30;99.90;;;;;;6250773;22;37635;-79
2023/02/13 06:12:52;;;;;;;48.50;28.27;;;7.30;99.90;;;;;;6229059;22;38537;-80
2023/02/13 06:15:18;;;;;;;53.03;29.10;;;7.20;99.90;;;;;;6225429;22;38284;-82
2023/02/13 06:17:44;;;;;;;53.67;28.77;;;7.20;99.90;;;;;;6250618;22;38657;-79
2023/02/13 06:20:11;;;;;;;46.37;27.07;;;7.20;99.90;;;;;;6221293;22;37097;-80
2023/02/13 06:22:37;;;;;;;54.47;28.83;;;7.20;99.90;;;;;;6251201;22;36480;-80
2023/02/13 06:25:03;;;;;;;50.43;27.77;;;7.20;99.90;;;;;;6255969;22;38532;-80
2023/02/13 06:27:30;;;;;;;42.87;25.60;;;7.20;99.90;;;;;;6250163;22;37949;-79
2023/02/13 06:29:56;;;;;;;53.03;29.33;;;7.30;99.90;;;;;;6244076;22;37054;-80
2023/02/13 06:32:22;;;;;;;53.87;30.43;;;7.30;99.90;;;;;;6248129;22;37391;-80
2023/02/13 06:34:49;;;;;;;50.60;27.53;;;7.30;99.90;;;;;;6225407;22;40121;-80
2023/02/13 06:37:15;;;;;;;53.30;29.83;;;7.40;99.90;;;;;;6250798;22;37930;-80
2023/02/13 06:39:41;;;;;;;49.73;27.90;;;7.40;99.90;;;;;;6252342;22;39432;-80
2023/02/13 06:42:07;;;;;;;49.80;29.77;;;7.40;99.90;;;;;;6234938;22;37810;-80
2023/02/13 06:44:33;;;;;;;55.07;29.30;;;7.40;99.90;;;;;;6223512;22;38242;-80
2023/02/13 06:46:59;;;;;;;52.67;30.80;;;7.40;99.90;;;;;;6198282;22;38841;-79
2023/02/13 06:49:26;;;;;;;57.87;31.07;;;7.40;99.90;;;;;;6200250;22;37215;-78
2023/02/13 06:51:53;;;;;;;58.40;30.50;;;7.30;99.90;;;;;;6245584;22;37232;-78
2023/02/13 06:54:19;;;;;;;57.90;31.00;;;7.30;99.90;;;;;;6241551;22;42533;-81
2023/02/13 06:56:45;;;;;;;59.73;31.83;;;7.20;99.90;;;;;;6243109;22;38503;-81
2023/02/13 06:59:11;;;;;;;55.90;31.20;;;7.10;99.90;;;;;;6243522;22;38619;-81
2023/02/13 07:01:38;;;;;;;64.87;33.13;;;6.90;99.90;;;;;;6242831;22;36313;-81
2023/02/13 07:04:04;;;;;;;65.60;33.10;;;6.80;99.90;;;;;;6246773;22;39526;-81
2023/02/13 07:06:30;;;;;;;64.60;33.83;;;6.70;99.90;;;;;;6248444;22;38816;-79
2023/02/13 07:08:56;;;;;;;59.33;32.93;;;6.60;99.90;;;;;;6216263;22;38411;-79
2023/02/13 07:11:24;;;;;;;60.73;31.97;;;6.50;99.90;;;;;;6214255;22;38766;-80
2023/02/13 07:13:50;;;;;;;72.47;37.03;;;6.40;99.90;;;;;;6227602;22;38163;-83
2023/02/13 07:16:16;;;;;;;61.83;34.67;;;6.40;99.90;;;;;;6220397;22;37499;-80
2023/02/13 07:18:42;;;;;;;65.50;35.20;;;6.30;99.90;;;;;;6222880;22;38571;-80
2023/02/13 07:21:09;;;;;;;67.20;35.30;;;6.20;99.90;;;;;;6247370;22;37905;-80
2023/02/13 07:23:35;;;;;;;80.13;39.50;;;6.20;99.90;;;;;;6220456;22;37589;-80
2023/02/13 07:26:01;;;;;;;81.30;39.73;;;6.10;99.90;;;;;;6219791;22;37370;-80
2023/02/13 07:28:30;;;;;;;79.10;38.50;;;6.10;99.90;;;;;;6231604;22;47220;-81
2023/02/13 07:30:56;;;;;;;78.33;37.00;;;6.00;99.90;;;;;;6232026;22;36241;-81
2023/02/13 07:36:22;;;;;;;82.97;38.23;;;5.90;99.90;;;;;;6252208;22;40336;-83
2023/02/13 07:38:55;;;;;;;86.70;40.97;;;5.70;99.90;;;;;;6271614;22;38507;-80
2023/02/13 07:41:24;;;;;;;75.57;38.77;;;5.60;99.90;;;;;;6244806;22;36751;-81
2023/02/13 07:43:51;;;;;;;82.97;39.03;;;5.50;99.90;;;;;;6233074;22;39004;-81
2023/02/13 07:46:24;;;;;;;82.80;40.53;;;5.50;99.90;;;;;;6246072;22;37710;-82
2023/02/13 07:48:55;;;;;;;80.53;38.47;;;5.50;99.90;;;;;;6273797;22;38477;-82
2023/02/13 07:51:24;;;;;;;78.50;40.30;;;5.50;99.90;;;;;;6265816;22;39034;-81
2023/02/13 07:53:51;;;;;;;90.50;40.77;;;5.60;99.90;;;;;;6243316;22;39432;-81
2023/02/13 07:56:17;;;;;;;72.20;37.93;;;5.70;99.90;;;;;;6241160;22;40288;-81
2023/02/13 07:58:45;;;;;;;92.17;42.40;;;5.70;99.90;;;;;;6263864;22;38318;-81
2023/02/13 08:01:15;;;;;;;91.17;43.80;;;5.80;99.90;;;;;;6261918;22;37332;-81
2023/02/13 08:03:50;;;;;;;96.50;42.73;;;5.80;99.90;;;;;;6277331;22;38993;-83
2023/02/13 08:06:26;;;;;;;91.93;42.53;;;5.80;99.90;;;;;;6249885;22;38372;-82
2023/02/13 08:11:52;;;;;;;92.03;44.60;;;5.80;99.90;;;;;;6251261;22;36951;-85
2023/02/13 08:11:53;;;;;;;82.03;40.43;;;5.90;99.90;;;;;;6273062;22;49634;-81
2023/02/13 08:14:26;;;;;;;109.80;48.70;;;5.90;99.90;;;;;;6227325;22;38046;-81
2023/02/13 08:16:53;;;;;;;87.47;42.53;;;5.90;99.90;;;;;;6228379;22;38585;-80
2023/02/13 08:19:20;;;;;;;102.63;46.40;;;6.00;99.90;;;;;;6256299;22;38576;-80
2023/02/13 08:21:46;;;;;;;103.73;46.40;;;6.00;99.90;;;;;;6231804;22;36699;-80
2023/02/13 08:24:12;;;;;;;93.47;43.73;;;6.00;99.90;;;;;;6225771;22;37949;-80
2023/02/13 08:26:39;;;;;;;102.83;45.97;;;6.00;99.90;;;;;;6222929;22;40247;-80
2023/02/13 08:29:05;;;;;;;105.20;46.73;;;6.00;99.90;;;;;;6220569;22;39162;-80
2023/02/13 08:31:31;;;;;;;90.97;44.93;;;6.00;99.90;;;;;;6220009;22;36215;-81
2023/02/13 08:33:58;;;;;;;95.77;44.67;;;6.10;99.90;;;;;;6230816;22;39142;-81
2023/02/13 08:36:24;;;;;;;102.33;48.33;;;6.10;99.90;;;;;;6229541;22;37269;-80
2023/02/13 08:38:50;;;;;;;96.20;46.00;;;6.10;99.90;;;;;;6231578;22;37453;-80
2023/02/13 08:41:17;;;;;;;95.57;45.33;;;6.10;99.90;;;;;;6233059;22;36127;-82
2023/02/13 08:43:44;;;;;;;104.37;47.93;;;6.20;99.90;;;;;;6231026;22;37342;-81
2023/02/13 08:51:22;;;;;;;96.90;46.27;;;6.20;99.90;;;;;;6246913;22;20021;-82
2023/02/13 08:54:16;;;;;;;110.53;48.93;;;6.30;99.90;;;;;;6237529;22;40376;31
2023/02/13 08:56:42;;;;;;;98.30;47.23;;;6.30;99.90;;;;;;6216772;22;38432;-82
2023/02/13 08:59:25;;;;;;;93.77;44.83;;;6.40;99.90;;;;;;6214773;23;36706;-82
2023/02/13 09:01:56;;;;;;;98.82;46.92;;;6.40;99.90;;;;;;6190559;23;36792;-84
2023/02/13 09:06:59;;;;;;;106.37;48.33;;;6.50;99.90;;;;;;6205940;22;20210;-83
2023/02/13 09:18:40;;;;;;;110.23;52.03;;;6.60;99.90;;;;;;6225683;22;20039;31
2023/02/13 09:41:56;;;;;;;99.27;50.37;;;7.10;99.90;;;;;;6189267;22;20186;-81
2023/02/13 09:49:38;;;;;;;109.20;52.47;;;7.20;99.90;;;;;;6214138;22;20027;-83
2023/02/13 10:58:32;;;;;;;81.83;42.97;;;8.60;99.90;;;;;;6249439;22;49928;-84
2023/02/13 11:04:28;;;;;;;76.10;40.53;;;8.90;99.90;;;;;;6245979;22;49902;-83
2023/02/13 11:06:58;;;;;;;68.80;38.33;;;9.00;99.90;;;;;;6250804;22;38887;-82
2023/02/13 11:12:31;;;;;;;73.90;41.13;;;9.10;99.90;;;;;;6214566;22;20025;-80
2023/02/13 11:32:19;;;;;;;55.37;30.83;;;9.60;99.90;;;;;;6216361;22;20001;-82
2023/02/13 11:42:35;;;;;;;46.53;28.50;;;9.90;99.90;;;;;;6208210;22;20009;-82
2023/02/13 11:45:19;;;;;;;47.57;28.37;;;10.10;99.90;;;;;;6233356;22;38142;-82
2023/02/13 11:50:36;;;;;;;46.73;26.47;;;10.30;99.90;;;;;;6303136;22;20144;-80
2023/02/13 11:53:26;;;;;;;46.17;26.40;;;10.10;99.90;;;;;;6270516;22;38991;-83
2023/02/13 11:56:09;;;;;;;45.50;25.57;;;10.10;99.90;;;;;;6296054;22;39432;-82
2023/02/13 11:58:36;;;;;;;44.53;25.43;;;10.20;99.90;;;;;;6252088;22;47393;-82
2023/02/13 12:01:25;;;;;;;42.97;25.57;;;10.10;99.90;;;;;;6237080;22;40616;-81
2023/02/13 12:04:12;;;;;;;44.80;26.30;;;10.10;99.90;;;;;;6245861;22;41236;-82
2023/02/13 12:13:54;;;;;;;40.47;22.37;;;10.40;99.90;;;;;;6251515;22;50226;-82
2023/02/13 12:16:46;;;;;;;35.22;21.67;;;10.70;99.90;;;;;;6268772;22;38899;-82
2023/02/13 12:19:19;;;;;;;34.20;20.73;;;10.60;99.90;;;;;;6237561;22;36928;-82
2023/02/13 12:21:53;;;;;;;32.73;19.60;;;10.70;99.90;;;;;;6235785;22;36240;-82
2023/02/13 12:24:22;;;;;;;38.17;21.33;;;10.60;99.90;;;;;;6226944;22;37655;-77
2023/02/13 12:32:56;;;;;;;33.33;19.70;;;10.90;99.90;;;;;;6208960;22;20027;-83
2023/02/13 12:35:44;;;;;;;37.38;20.75;;;10.70;99.90;;;;;;6218152;22;39152;-82
2023/02/13 12:38:51;;;;;;;31.23;19.07;;;10.80;99.90;;;;;;6241995;22;37165;-81
2023/02/13 12:41:59;;;;;;;34.07;20.87;;;10.90;99.90;;;;;;6270880;22;38286;-81
2023/02/13 12:44:34;;;;;;;35.00;21.35;;;11.00;99.90;;;;;;6268603;22;38075;-81
2023/02/13 12:47:06;;;;;;;40.10;23.95;;;11.10;99.90;;;;;;6266482;22;40267;-81
2023/02/13 12:50:06;;;;;;;36.75;23.75;;;10.80;99.90;;;;;;6233437;22;47080;-81
2023/02/13 12:53:01;;;;;;;36.97;22.80;;;10.70;99.90;;;;;;6231869;22;47082;-81
2023/02/13 12:55:34;;;;;;;36.20;22.38;;;10.80;99.90;;;;;;6233841;22;36509;-81
2023/02/13 12:58:25;;;;;;;33.42;21.15;;;10.80;99.90;;;;;;6235961;22;39791;-81
2023/02/13 13:01:13;;;;;;;36.42;21.15;;;11.00;99.90;;;;;;6228247;22;46952;-80
2023/02/13 13:03:53;;;;;;;30.27;20.02;;;11.40;99.90;;;;;;6231118;22;47107;-81
2023/02/13 13:06:35;;;;;;;34.03;21.25;;;11.30;99.90;;;;;;6259158;22;39007;-81
2023/02/13 13:09:19;;;;;;;31.02;20.20;;;11.10;99.90;;;;;;6233584;22;37605;-79
2023/02/13 13:12:11;;;;;;;36.28;21.15;;;11.40;99.90;;;;;;6230048;22;37717;-80
2023/02/13 13:14:56;;;;;;;30.25;20.48;;;11.50;99.90;;;;;;6220623;22;48551;-80
2023/02/13 13:17:53;;;;;;;30.23;19.10;;;11.20;99.90;;;;;;6258297;22;37258;-80
2023/02/13 13:20:38;;;;;;;35.15;19.55;;;11.40;99.90;;;;;;6252839;22;39767;-80
2023/02/13 13:23:12;;;;;;;30.00;19.48;;;11.40;99.90;;;;;;6226496;22;38550;-80
2023/02/13 13:25:44;;;;;;;28.50;18.77;;;11.50;99.90;;;;;;6226161;22;38605;-81
2023/02/13 13:28:20;;;;;;;32.38;20.42;;;11.70;99.90;;;;;;6254574;22;37791;-80
2023/02/13 13:30:48;;;;;;;33.53;20.27;;;11.70;99.90;;;;;;6229133;22;39039;-79
2023/02/13 13:33:20;;;;;;;31.88;19.70;;;11.90;99.90;;;;;;6229713;22;37575;-81
2023/02/13 13:36:13;;;;;;;34.50;20.08;;;11.70;99.90;;;;;;6256239;22;38068;-80
2023/02/13 13:38:55;;;;;;;35.97;21.05;;;11.50;99.90;;;;;;6228538;22;47413;-80
2023/02/13 13:41:30;;;;;;;29.70;19.83;;;11.60;99.90;;;;;;6254979;22;39605;-81
2023/02/13 13:44:21;;;;;;;31.58;20.65;;;11.70;99.90;;;;;;6228020;22;37415;-81
2023/02/13 13:47:05;;;;;;;29.67;19.67;;;11.60;99.90;;;;;;6255464;22;49341;-81
2023/02/13 13:49:50;;;;;;;29.50;19.35;;;11.60;99.90;;;;;;6230745;22;47148;-81
2023/02/13 13:52:36;;;;;;;32.88;20.13;;;11.70;99.90;;;;;;6228538;22;39075;-80
2023/02/13 13:55:03;;;;;;;32.55;21.00;;;11.70;99.90;;;;;;6263265;22;38420;-80
2023/02/13 13:57:32;;;;;;;34.80;21.42;;;11.80;99.90;;;;;;6231677;22;37187;-79
2023/02/13 14:00:25;;;;;;;31.13;20.77;;;11.70;99.90;;;;;;6220501;22;37970;-81
2023/02/13 14:03:19;;;;;;;30.52;20.30;;;11.80;99.90;;;;;;6231465;22;47916;-80
2023/02/13 14:06:00;;;;;;;32.42;21.35;;;11.90;99.90;;;;;;6252759;22;48694;-80
2023/02/13 14:08:39;;;;;;;31.35;19.25;;;11.90;99.90;;;;;;6227217;22;46567;-81
2023/02/13 14:11:23;;;;;;;30.30;19.70;;;11.70;99.90;;;;;;6256364;22;37502;-79
2023/02/13 14:13:49;;;;;;;28.55;19.20;;;11.70;99.90;;;;;;6228019;22;37699;-81
2023/02/13 14:16:43;;;;;;;27.25;16.90;;;11.90;99.90;;;;;;6228411;22;38865;-80
2023/02/13 14:19:29;;;;;;;26.88;16.48;;;12.00;99.90;;;;;;6230450;22;38017;-80
2023/02/13 14:22:17;;;;;;;29.65;17.40;;;12.10;99.90;;;;;;6218106;22;36014;-80
2023/02/13 14:24:53;;;;;;;29.48;18.08;;;12.00;99.90;;;;;;6226918;22;46775;-81
2023/02/13 14:27:28;;;;;;;28.08;17.60;;;11.90;99.90;;;;;;6229287;22;37017;-80
2023/02/13 14:29:55;;;;;;;28.33;18.35;;;12.00;99.90;;;;;;6255768;22;38759;-80
2023/02/13 14:32:24;;;;;;;26.52;17.33;;;12.00;99.90;;;;;;6227631;22;36204;-81
2023/02/13 14:34:57;;;;;;;29.38;19.20;;;11.90;99.90;;;;;;6231729;22;38267;-80
2023/02/13 14:37:51;;;;;;;26.20;17.05;;;12.00;99.90;;;;;;6256739;22;39935;-80
2023/02/13 14:40:17;;;;;;;28.30;17.48;;;12.00;99.90;;;;;;6227403;22;37439;-81
2023/02/13 14:42:49;;;;;;;27.58;17.65;;;12.00;99.90;;;;;;6229742;22;36563;-80
2023/02/13 14:45:19;;;;;;;26.75;17.60;;;12.00;99.90;;;;;;6224424;22;39439;-80
2023/02/13 14:47:54;;;;;;;29.65;16.95;;;12.10;99.90;;;;;;6225783;22;38687;-80
2023/02/13 14:50:25;;;;;;;25.08;16.40;;;12.00;99.90;;;;;;6245693;22;39261;-80
2023/02/13 14:52:53;;;;;;;23.90;16.73;;;12.00;99.90;;;;;;6176511;23;36259;-81
2023/02/13 14:58:27;;;;;;;27.77;17.73;;;12.10;99.90;;;;;;6246518;22;20027;-80
2023/02/13 15:00:59;;;;;;;27.63;16.40;;;12.20;99.90;;;;;;6257623;22;38330;-80
2023/02/13 15:03:53;;;;;;;23.25;16.30;;;12.10;99.90;;;;;;6260769;22;37309;-81
2023/02/13 15:06:40;;;;;;;26.60;16.92;;;12.00;99.90;;;;;;6235742;22;38150;-80
2023/02/13 15:09:39;;;;;;;29.08;17.67;;;12.00;99.90;;;;;;6235522;22;38239;-81
2023/02/13 15:12:34;;;;;;;24.23;15.90;;;12.00;99.90;;;;;;6254119;22;38802;-81
2023/02/13 15:15:34;;;;;;;24.92;16.83;;;12.00;99.90;;;;;;6268502;22;38435;-81
2023/02/13 15:18:08;;;;;;;24.33;17.00;;;11.90;99.90;;;;;;6239089;22;46866;-81
2023/02/13 15:20:37;;;;;;;23.17;16.33;;;11.80;99.90;;;;;;6261240;22;49312;-80
2023/02/13 15:23:08;;;;;;;25.85;17.38;;;11.80;99.90;;;;;;6228326;22;37090;-79
2023/02/13 15:25:38;;;;;;;22.75;16.30;;;11.80;99.90;;;;;;6232761;22;36750;-80
2023/02/13 15:28:07;;;;;;;22.83;15.90;;;11.70;99.90;;;;;;6233622;22;39705;-80
2023/02/13 15:30:37;;;;;;;25.30;16.80;;;11.70;99.90;;;;;;6235006;22;37387;-81
2023/02/13 15:33:22;;;;;;;21.50;15.35;;;11.70;99.90;;;;;;6263394;22;38463;-80
2023/02/13 15:36:00;;;;;;;22.45;15.50;;;11.70;99.90;;;;;;6271356;22;38294;-81
2023/02/13 15:38:35;;;;;;;26.20;16.83;;;11.80;99.90;;;;;;6267011;22;40098;-80
2023/02/13 15:41:16;;;;;;;21.15;15.35;;;11.70;99.90;;;;;;6241000;22;37566;-81
2023/02/13 15:43:48;;;;;;;24.23;16.70;;;11.70;99.90;;;;;;6232521;22;48171;-81
2023/02/13 15:46:23;;;;;;;21.27;15.32;;;11.60;99.90;;;;;;6228292;22;37511;-80
2023/02/13 15:48:57;;;;;;;23.70;15.70;;;11.60;99.90;;;;;;6234814;22;37670;-79
2023/02/13 15:51:29;;;;;;;26.65;16.13;;;11.50;99.90;;;;;;6262562;22;38855;-80
2023/02/13 15:54:00;;;;;;;21.90;14.93;;;11.50;99.90;;;;;;6236110;22;36721;-80
2023/02/13 15:56:29;;;;;;;22.55;15.65;;;11.50;99.90;;;;;;6263673;22;48129;-79
2023/02/13 15:58:57;;;;;;;26.88;16.35;;;11.40;99.90;;;;;;6261873;22;39012;-81
2023/02/13 16:01:24;;;;;;;22.42;15.27;;;11.40;99.90;;;;;;6226527;22;37707;-80
2023/02/13 16:04:00;;;;;;;21.33;14.52;;;11.40;99.90;;;;;;6261844;22;38172;-80
2023/02/13 16:06:27;;;;;;;23.92;16.58;;;11.30;99.90;;;;;;6264375;22;48112;-82
2023/02/13 16:08:56;;;;;;;23.80;16.23;;;11.30;99.90;;;;;;6259405;22;39500;-80
2023/02/13 16:11:27;;;;;;;21.92;16.35;;;11.20;99.90;;;;;;6233207;22;38586;-81
2023/02/13 16:14:11;;;;;;;21.27;15.33;;;11.20;99.90;;;;;;6240913;22;37456;-82
2023/02/13 16:17:05;;;;;;;24.58;15.88;;;11.00;99.90;;;;;;6239128;22;48201;-81
2023/02/13 16:19:34;;;;;;;27.77;17.57;;;11.00;99.90;;;;;;6237431;22;46923;-80
2023/02/13 16:22:45;;;;;;;23.00;16.23;;;10.80;99.90;;;;;;6243801;22;38683;-80
2023/02/13 16:25:35;;;;;;;24.30;16.43;;;10.70;99.90;;;;;;6242698;22;47893;-81
2023/02/13 16:28:22;;;;;;;23.90;16.40;;;10.60;99.90;;;;;;6265305;22;37706;-81
2023/02/13 16:30:55;;;;;;;24.93;16.53;;;10.50;99.90;;;;;;6273016;22;41148;-81